createdAt,value
2019-02-25T00:00:48.870Z,26.30
2019-02-25T00:02:55.829Z,24.87
2019-02-25T00:05:02.567Z,25.90
2019-02-25T00:07:09.279Z,24.95
2019-02-25T00:09:15.952Z,25.77
2019-02-25T00:11:22.641Z,25.60
2019-02-25T00:13:29.404Z,25.52
2019-02-25T00:15:36.093Z,25.12
2019-02-25T00:17:42.761Z,25.05
2019-02-25T00:19:49.464Z,27.22
2019-02-25T00:21:56.148Z,25.82
2019-02-25T00:24:02.887Z,26.45
2019-02-25T00:26:09.619Z,25.92
2019-02-25T00:28:16.310Z,24.47
2019-02-25T00:30:24.051Z,24.02
2019-02-25T00:32:30.775Z,24.45
2019-02-25T00:34:37.463Z,23.47
2019-02-25T00:36:44.125Z,23.07
2019-02-25T00:38:50.825Z,23.02
2019-02-25T00:40:57.502Z,23.12
2019-02-25T00:43:05.250Z,23.30
2019-02-25T00:45:17.298Z,23.05
2019-02-25T00:47:24.040Z,23.75
2019-02-25T00:49:30.783Z,23.55
2019-02-25T00:51:37.484Z,22.75
2019-02-25T00:53:44.158Z,23.45
2019-02-25T00:55:51.765Z,24.25
2019-02-25T00:57:58.525Z,23.83
2019-02-25T01:00:24.319Z,24.52
2019-02-25T01:02:30.989Z,22.10
2019-02-25T01:04:37.682Z,22.87
2019-02-25T01:06:44.358Z,24.20
2019-02-25T01:08:51.129Z,23.05
2019-02-25T01:10:57.907Z,22.40
2019-02-25T01:13:04.752Z,22.70
2019-02-25T01:15:12.032Z,22.50
2019-02-25T01:17:18.736Z,20.60
2019-02-25T01:19:25.487Z,20.32
2019-02-25T01:21:32.162Z,20.82
2019-02-25T01:23:38.924Z,20.62
2019-02-25T01:25:45.613Z,21.52
2019-02-25T01:27:52.281Z,20.48
2019-02-25T01:29:59.056Z,22.27
2019-02-25T01:32:06.018Z,20.27
2019-02-25T01:34:12.693Z,20.52
2019-02-25T01:36:19.533Z,20.45
2019-02-25T01:38:26.194Z,19.87
2019-02-25T01:40:32.878Z,19.48
2019-02-25T01:42:40.018Z,20.68
2019-02-25T01:44:46.691Z,20.72
2019-02-25T01:46:53.371Z,20.00
2019-02-25T01:49:00.065Z,20.00
2019-02-25T01:51:06.802Z,21.68
2019-02-25T01:53:13.483Z,21.80
2019-02-25T01:55:20.174Z,20.12
2019-02-25T01:57:27.029Z,20.17
2019-02-25T01:59:33.702Z,20.90
2019-02-25T02:01:40.407Z,19.67
2019-02-25T02:03:47.103Z,19.87
2019-02-25T02:05:53.956Z,20.05
2019-02-25T02:08:00.649Z,20.12
2019-02-25T02:10:16.492Z,19.25
2019-02-25T02:12:23.163Z,19.60
2019-02-25T02:14:29.874Z,19.87
2019-02-25T02:16:36.554Z,19.07
2019-02-25T02:18:43.222Z,19.23
2019-02-25T02:20:49.937Z,19.95
2019-02-25T02:22:56.901Z,19.55
2019-02-25T02:25:03.645Z,19.07
2019-02-25T02:27:10.358Z,19.30
2019-02-25T02:29:17.024Z,19.57
2019-02-25T02:31:23.630Z,19.42
2019-02-25T02:33:30.329Z,19.32
2019-02-25T02:35:36.998Z,18.65
2019-02-25T02:37:43.667Z,19.02
2019-02-25T02:39:50.368Z,19.10
2019-02-25T02:42:17.971Z,18.48
2019-02-25T02:44:24.644Z,18.82
2019-02-25T02:47:15.652Z,18.45
2019-02-25T02:49:22.333Z,18.30
2019-02-25T02:51:30.092Z,18.20
2019-02-25T02:53:36.862Z,19.57
2019-02-25T02:55:43.542Z,18.50
2019-02-25T02:57:50.206Z,18.20
2019-02-25T02:59:56.909Z,17.77
2019-02-25T03:02:03.595Z,18.42
2019-02-25T03:04:10.282Z,19.42
2019-02-25T03:06:16.970Z,18.05
2019-02-25T03:08:23.642Z,18.73
2019-02-25T03:10:30.331Z,18.30
2019-02-25T03:12:38.047Z,18.73
2019-02-25T03:14:44.726Z,17.92
2019-02-25T03:16:51.391Z,18.25
2019-02-25T03:18:59.084Z,18.15
2019-02-25T03:21:05.830Z,18.40
2019-02-25T03:23:12.500Z,18.57
2019-02-25T03:25:19.814Z,18.65
2019-02-25T03:27:26.479Z,18.32
2019-02-25T03:29:33.149Z,17.60
2019-02-25T03:31:39.862Z,18.48
2019-02-25T03:33:46.526Z,17.40
2019-02-25T03:35:53.263Z,17.95
2019-02-25T03:37:59.958Z,17.00
2019-02-25T03:40:13.389Z,17.40
2019-02-25T03:42:20.130Z,17.35
2019-02-25T03:44:27.841Z,17.37
2019-02-25T03:46:34.508Z,17.98
2019-02-25T03:48:42.189Z,19.05
2019-02-25T03:50:48.889Z,19.48
2019-02-25T03:52:55.629Z,19.37
2019-02-25T03:55:02.418Z,18.65
2019-02-25T03:57:09.120Z,18.87
2019-02-25T03:59:15.790Z,19.42
2019-02-25T04:01:22.461Z,17.02
2019-02-25T04:03:29.161Z,18.23
2019-02-25T04:05:35.930Z,17.32
2019-02-25T04:07:42.709Z,16.80
2019-02-25T04:09:49.476Z,16.23
2019-02-25T04:11:56.212Z,18.05
2019-02-25T04:14:03.890Z,15.85
2019-02-25T04:16:10.772Z,15.78
2019-02-25T04:18:17.444Z,14.95
2019-02-25T04:20:24.287Z,15.45
2019-02-25T04:22:31.000Z,15.85
2019-02-25T04:24:37.672Z,16.48
2019-02-25T04:26:44.337Z,16.05
2019-02-25T04:28:51.105Z,16.07
2019-02-25T04:30:57.767Z,17.10
2019-02-25T04:33:04.528Z,18.10
2019-02-25T04:35:13.529Z,16.15
2019-02-25T04:37:20.210Z,15.53
2019-02-25T04:39:26.886Z,15.85
2019-02-25T04:41:33.591Z,15.55
2019-02-25T04:43:40.271Z,16.20
2019-02-25T04:45:46.955Z,15.35
2019-02-25T04:47:53.659Z,16.07
2019-02-25T04:50:01.336Z,16.45
2019-02-25T04:52:08.028Z,16.65
2019-02-25T04:54:14.735Z,15.25
2019-02-25T04:56:21.397Z,15.88
2019-02-25T04:58:28.076Z,16.23
2019-02-25T05:00:34.791Z,15.88
2019-02-25T05:02:41.521Z,15.98
2019-02-25T05:04:48.188Z,15.05
2019-02-25T05:06:54.892Z,16.02
2019-02-25T05:09:01.548Z,15.15
2019-02-25T05:11:09.758Z,15.65
2019-02-25T05:13:16.473Z,15.35
2019-02-25T05:15:27.685Z,16.65
2019-02-25T05:17:34.382Z,15.45
2019-02-25T05:19:40.996Z,17.45
2019-02-25T05:21:47.677Z,16.20
2019-02-25T05:23:54.350Z,16.52
2019-02-25T05:26:01.040Z,16.20
2019-02-25T05:28:07.732Z,16.07
2019-02-25T05:30:16.671Z,15.38
2019-02-25T05:32:23.356Z,16.23
2019-02-25T05:34:30.114Z,17.42
2019-02-25T05:36:36.797Z,15.70
2019-02-25T05:38:43.701Z,16.55
2019-02-25T05:40:51.111Z,16.82
2019-02-25T05:42:57.782Z,16.48
2019-02-25T05:45:04.992Z,15.90
2019-02-25T05:47:11.665Z,17.92
2019-02-25T05:49:18.341Z,17.35
2019-02-25T05:51:25.030Z,15.93
2019-02-25T05:53:31.700Z,16.17
2019-02-25T05:55:38.375Z,16.85
2019-02-25T05:57:45.068Z,16.57
2019-02-25T05:59:51.752Z,15.80
2019-02-25T06:01:58.427Z,16.77
2019-02-25T06:04:05.113Z,17.60
2019-02-25T06:06:11.775Z,15.63
2019-02-25T06:08:19.520Z,16.65
2019-02-25T06:10:26.285Z,16.77
2019-02-25T06:12:32.956Z,15.40
2019-02-25T06:14:39.643Z,18.87
2019-02-25T06:16:46.330Z,17.12
2019-02-25T06:18:52.994Z,18.45
2019-02-25T06:20:59.655Z,17.15
2019-02-25T06:23:06.342Z,18.48
2019-02-25T06:25:15.217Z,18.17
2019-02-25T06:27:30.469Z,16.67
2019-02-25T06:29:30.356Z,17.07
2019-02-25T06:31:37.023Z,18.10
2019-02-25T06:33:43.689Z,16.97
2019-02-25T06:35:50.402Z,17.05
2019-02-25T06:37:59.533Z,18.10
2019-02-25T06:42:14.169Z,17.35
2019-02-25T06:44:20.830Z,17.57
2019-02-25T06:46:27.490Z,17.23
2019-02-25T06:48:34.185Z,18.02
2019-02-25T06:50:40.843Z,17.60
2019-02-25T06:52:47.517Z,18.20
2019-02-25T06:54:54.251Z,18.77
2019-02-25T06:57:00.950Z,17.35
2019-02-25T06:59:07.644Z,17.67
2019-02-25T07:01:14.321Z,19.62
2019-02-25T07:03:20.994Z,18.25
2019-02-25T07:05:35.110Z,19.35
2019-02-25T07:08:01.591Z,19.77
2019-02-25T07:10:10.719Z,19.95
2019-02-25T07:14:29.075Z,19.17
2019-02-25T07:16:49.491Z,19.92
2019-02-25T07:19:06.883Z,19.48
2019-02-25T07:21:29.872Z,20.55
2019-02-25T07:23:41.991Z,25.23
2019-02-25T07:25:50.303Z,20.37
2019-02-25T07:28:07.596Z,19.67
2019-02-25T07:30:18.974Z,19.40
2019-02-25T07:32:30.124Z,19.62
2019-02-25T07:34:38.410Z,19.55
2019-02-25T07:36:56.954Z,18.70
2019-02-25T07:39:14.014Z,20.48
2019-02-25T07:41:38.259Z,22.48
2019-02-25T07:44:02.511Z,29.85
2019-02-25T07:46:19.572Z,23.38
2019-02-25T07:48:30.588Z,19.60
2019-02-25T07:50:46.956Z,25.00
2019-02-25T07:52:48.891Z,24.80
2019-02-25T07:55:06.115Z,21.17
2019-02-25T07:57:18.102Z,23.73
2019-02-25T07:59:29.508Z,20.62
2019-02-25T08:01:37.851Z,21.40
2019-02-25T08:03:51.860Z,20.70
2019-02-25T08:06:04.032Z,23.32
2019-02-25T08:08:12.399Z,22.93
2019-02-25T08:10:23.448Z,21.33
2019-02-25T08:12:37.729Z,21.30
2019-02-25T08:14:56.088Z,21.10
2019-02-25T08:17:13.442Z,22.32
2019-02-25T08:19:24.487Z,20.85
2019-02-25T08:21:50.644Z,21.05
2019-02-25T08:24:01.638Z,20.60
2019-02-25T08:26:25.987Z,20.65
2019-02-25T08:28:35.565Z,22.27
2019-02-25T08:30:42.004Z,20.48
2019-02-25T08:33:02.282Z,21.77
2019-02-25T08:35:30.054Z,21.68
2019-02-25T08:37:57.762Z,21.65
2019-02-25T08:40:29.549Z,24.15
2019-02-25T08:42:38.529Z,35.25
2019-02-25T08:44:44.954Z,21.52
2019-02-25T08:47:02.039Z,20.48
2019-02-25T08:49:16.038Z,21.37
2019-02-25T08:51:22.710Z,21.82
2019-02-25T08:53:30.470Z,21.37
2019-02-25T08:55:37.154Z,20.35
2019-02-25T08:57:43.895Z,21.80
2019-02-25T08:59:50.571Z,20.52
2019-02-25T09:01:57.314Z,19.30
2019-02-25T09:04:03.982Z,22.30
2019-02-25T09:06:10.677Z,21.80
2019-02-25T09:08:17.329Z,19.25
2019-02-25T09:10:24.003Z,21.40
2019-02-25T09:12:30.665Z,20.88
2019-02-25T09:14:37.330Z,20.60
2019-02-25T09:16:44.073Z,21.97
2019-02-25T09:18:50.799Z,20.40
2019-02-25T09:20:57.460Z,20.65
2019-02-25T09:23:04.220Z,18.12
2019-02-25T09:25:15.720Z,18.45
2019-02-25T09:27:22.378Z,16.60
2019-02-25T09:29:29.152Z,19.55
2019-02-25T09:31:35.811Z,18.17
2019-02-25T09:33:42.510Z,20.10
2019-02-25T09:35:49.195Z,19.40
2019-02-25T09:37:55.865Z,17.12
2019-02-25T09:40:02.552Z,19.75
2019-02-25T09:42:09.592Z,19.15
2019-02-25T09:44:16.328Z,20.70
2019-02-25T09:46:23.042Z,19.27
2019-02-25T09:48:29.698Z,19.52
2019-02-25T09:50:37.363Z,19.05
2019-02-25T09:52:44.105Z,18.50
2019-02-25T09:54:50.784Z,19.25
2019-02-25T09:56:58.455Z,18.60
2019-02-25T09:59:05.150Z,17.50
2019-02-25T10:01:11.817Z,17.12
2019-02-25T10:03:18.479Z,18.48
2019-02-25T10:05:25.251Z,18.80
2019-02-25T10:07:31.923Z,17.42
2019-02-25T10:09:38.589Z,18.25
2019-02-25T10:11:45.357Z,17.82
2019-02-25T10:13:52.042Z,18.02
2019-02-25T10:15:58.675Z,18.92
2019-02-25T10:18:05.381Z,18.10
2019-02-25T10:20:12.142Z,17.15
2019-02-25T10:22:18.808Z,18.37
2019-02-25T10:24:25.513Z,17.15
2019-02-25T10:26:32.180Z,17.10
2019-02-25T10:28:38.857Z,17.17
2019-02-25T10:30:52.549Z,16.55
2019-02-25T10:32:53.898Z,16.40
2019-02-25T10:35:00.631Z,20.37
2019-02-25T10:37:08.881Z,15.30
2019-02-25T10:39:17.733Z,16.73
2019-02-25T10:41:26.180Z,17.37
2019-02-25T10:43:34.574Z,18.12
2019-02-25T10:45:41.552Z,15.90
2019-02-25T10:47:51.167Z,15.28
2019-02-25T10:49:58.636Z,16.05
2019-02-25T10:52:07.088Z,18.27
2019-02-25T10:54:14.730Z,15.20
2019-02-25T10:56:29.852Z,17.25
2019-02-25T10:58:36.784Z,16.52
2019-02-25T11:00:44.368Z,16.27
2019-02-25T11:02:53.603Z,17.25
2019-02-25T11:05:00.324Z,17.67
2019-02-25T11:07:07.888Z,15.98
2019-02-25T11:09:35.372Z,17.57
2019-02-25T11:11:42.803Z,15.75
2019-02-25T11:13:50.399Z,17.62
2019-02-25T11:15:57.158Z,17.32
2019-02-25T11:18:04.025Z,15.53
2019-02-25T11:20:15.253Z,16.02
2019-02-25T11:22:21.942Z,16.07
2019-02-25T11:24:28.677Z,14.83
2019-02-25T11:26:35.483Z,14.98
2019-02-25T11:28:43.801Z,15.30
2019-02-25T11:30:51.952Z,14.63
2019-02-25T11:33:00.033Z,17.05
2019-02-25T11:35:10.840Z,15.68
2019-02-25T11:37:19.718Z,14.83
2019-02-25T11:39:27.528Z,14.85
2019-02-25T11:41:36.541Z,15.98
2019-02-25T11:43:44.083Z,15.68
2019-02-25T11:45:51.153Z,15.28
2019-02-25T11:47:58.615Z,16.97
2019-02-25T11:50:11.953Z,15.40
2019-02-25T11:52:18.661Z,15.32
2019-02-25T11:54:25.430Z,16.67
2019-02-25T11:56:32.202Z,15.78
2019-02-25T11:58:38.873Z,17.62
2019-02-25T12:00:45.574Z,16.42
2019-02-25T12:02:52.254Z,16.25
2019-02-25T12:04:58.939Z,17.77
2019-02-25T12:07:05.646Z,17.17
2019-02-25T12:09:12.424Z,15.18
2019-02-25T12:11:19.245Z,17.10
2019-02-25T12:13:25.942Z,16.75
2019-02-25T12:15:32.619Z,16.05
2019-02-25T12:17:39.365Z,16.40
2019-02-25T12:19:46.065Z,15.95
2019-02-25T12:21:52.678Z,14.23
2019-02-25T12:23:59.336Z,14.83
2019-02-25T12:26:06.046Z,16.48
2019-02-25T12:28:12.723Z,17.52
2019-02-25T12:30:27.862Z,19.42
2019-02-25T12:32:34.634Z,20.80
2019-02-25T12:34:41.297Z,17.98
2019-02-25T12:36:47.966Z,18.17
2019-02-25T12:38:54.728Z,15.98
2019-02-25T12:41:01.475Z,17.67
2019-02-25T12:43:08.159Z,19.07
2019-02-25T12:45:16.264Z,15.53
2019-02-25T12:47:22.949Z,17.93
2019-02-25T12:49:29.614Z,17.85
2019-02-25T12:51:36.321Z,14.98
2019-02-25T12:53:43.068Z,14.33
2019-02-25T12:55:49.737Z,14.07
2019-02-25T12:57:56.453Z,13.80
2019-02-25T13:00:03.134Z,12.65
2019-02-25T13:02:10.052Z,11.70
2019-02-25T13:04:16.823Z,13.72
2019-02-25T13:06:23.571Z,11.12
2019-02-25T13:08:30.262Z,11.10
2019-02-25T13:10:36.975Z,12.13
2019-02-25T13:12:43.742Z,12.98
2019-02-25T13:14:50.458Z,12.30
2019-02-25T13:16:57.158Z,11.50
2019-02-25T13:19:03.858Z,12.07
2019-02-25T13:21:10.532Z,11.63
2019-02-25T13:23:17.223Z,11.30
2019-02-25T13:25:31.833Z,12.30
2019-02-25T13:27:38.507Z,12.47
2019-02-25T13:29:45.196Z,11.75
2019-02-25T13:31:51.887Z,12.35
2019-02-25T13:33:58.559Z,13.00
2019-02-25T13:36:09.651Z,12.58
2019-02-25T13:38:16.348Z,12.40
2019-02-25T13:40:23.036Z,13.20
2019-02-25T13:42:30.003Z,12.88
2019-02-25T13:44:36.681Z,12.00
2019-02-25T13:46:43.362Z,11.53
2019-02-25T13:48:50.134Z,10.78
2019-02-25T13:50:56.876Z,11.18
2019-02-25T13:53:03.540Z,11.10
2019-02-25T13:55:16.201Z,11.68
2019-02-25T13:57:22.865Z,12.28
2019-02-25T13:59:29.730Z,12.53
2019-02-25T14:01:36.434Z,12.90
2019-02-25T14:03:43.098Z,12.37
2019-02-25T14:05:49.947Z,13.43
2019-02-25T14:07:56.646Z,14.25
2019-02-25T14:10:03.427Z,13.98
2019-02-25T14:12:11.095Z,13.62
2019-02-25T14:14:17.802Z,15.53
2019-02-25T14:16:24.566Z,15.80
2019-02-25T14:18:31.254Z,16.27
2019-02-25T14:20:38.048Z,15.55
2019-02-25T14:22:44.730Z,15.63
2019-02-25T14:24:51.382Z,17.80
2019-02-25T14:26:58.098Z,19.27
2019-02-25T14:29:06.817Z,21.50
2019-02-25T14:31:14.614Z,21.05
2019-02-25T14:33:23.624Z,19.40
2019-02-25T14:35:34.673Z,20.85
2019-02-25T14:37:41.345Z,18.70
2019-02-25T14:39:51.535Z,19.87
2019-02-25T14:41:58.914Z,19.45
2019-02-25T14:44:06.288Z,21.37
2019-02-25T14:46:14.451Z,17.85
2019-02-25T14:48:22.988Z,17.25
2019-02-25T14:50:30.057Z,17.77
2019-02-25T14:52:36.934Z,17.25
2019-02-25T14:54:45.779Z,18.70
2019-02-25T14:56:52.770Z,17.75
2019-02-25T14:59:03.090Z,18.85
2019-02-25T15:01:09.884Z,18.12
2019-02-25T15:03:18.094Z,19.37
2019-02-25T15:05:27.945Z,19.32
2019-02-25T15:07:34.975Z,20.85
2019-02-25T15:09:43.381Z,19.57
2019-02-25T15:11:51.309Z,20.45
2019-02-25T15:13:59.462Z,24.27
2019-02-25T15:16:06.469Z,22.00
2019-02-25T15:18:13.164Z,20.05
2019-02-25T15:20:23.289Z,22.90
2019-02-25T15:22:31.869Z,24.98
2019-02-25T15:24:38.703Z,23.75
2019-02-25T15:26:45.371Z,26.05
2019-02-25T15:28:56.017Z,26.87
2019-02-25T15:31:04.099Z,24.63
2019-02-25T15:33:08.893Z,26.65
2019-02-25T15:35:17.046Z,27.60
2019-02-25T15:37:24.087Z,25.85
2019-02-25T15:39:30.759Z,27.10
2019-02-25T15:41:38.511Z,27.20
2019-02-25T15:43:45.885Z,30.48
2019-02-25T15:45:52.747Z,26.20
2019-02-25T15:47:59.764Z,26.70
2019-02-25T15:50:10.607Z,27.35
2019-02-25T15:52:18.808Z,25.30
2019-02-25T15:54:28.953Z,27.30
2019-02-25T15:56:34.496Z,27.58
2019-02-25T15:58:41.238Z,27.98
2019-02-25T16:00:48.519Z,26.20
2019-02-25T16:02:56.626Z,30.23
2019-02-25T16:05:05.404Z,30.00
2019-02-25T16:07:12.831Z,27.67
2019-02-25T16:09:23.765Z,28.52
2019-02-25T16:11:29.645Z,30.30
2019-02-25T16:13:37.834Z,30.95
2019-02-25T16:15:44.694Z,28.47
2019-02-25T16:17:52.180Z,31.62
2019-02-25T16:19:58.847Z,32.55
2019-02-25T16:22:07.875Z,34.78
2019-02-25T16:24:14.854Z,30.77
2019-02-25T16:26:22.367Z,32.53
2019-02-25T16:28:31.066Z,34.08
2019-02-25T16:30:37.832Z,33.90
2019-02-25T16:32:46.682Z,35.15
2019-02-25T16:34:55.977Z,33.18
2019-02-25T16:37:04.797Z,31.77
2019-02-25T16:39:11.756Z,33.95
2019-02-25T16:41:27.096Z,31.65
2019-02-25T16:43:27.288Z,34.15
2019-02-25T16:45:36.800Z,34.03
2019-02-25T16:47:42.480Z,30.45
2019-02-25T16:49:50.357Z,29.40
2019-02-25T16:51:59.407Z,30.57
2019-02-25T16:54:09.115Z,35.50
2019-02-25T16:56:14.410Z,35.52
2019-02-25T16:58:21.165Z,33.70
2019-02-25T17:00:32.204Z,31.20
2019-02-25T17:02:40.103Z,30.72
2019-02-25T17:04:46.521Z,28.90
2019-02-25T17:06:55.708Z,26.65
2019-02-25T17:09:03.066Z,26.10
2019-02-25T17:11:12.912Z,28.90
2019-02-25T17:13:20.084Z,29.82
2019-02-25T17:15:27.199Z,25.23
2019-02-25T17:17:33.952Z,28.67
2019-02-25T17:19:40.645Z,24.30
2019-02-25T17:21:47.310Z,21.90
2019-02-25T17:23:56.221Z,19.60
2019-02-25T17:26:03.793Z,21.02
2019-02-25T17:28:14.740Z,20.55
2019-02-25T17:30:24.136Z,23.27
2019-02-25T17:32:30.822Z,20.05
2019-02-25T17:34:38.994Z,20.60
2019-02-25T17:36:47.342Z,19.75
2019-02-25T17:38:54.532Z,21.30
2019-02-25T17:41:03.090Z,22.62
2019-02-25T17:43:11.258Z,22.70
2019-02-25T17:45:25.103Z,22.13
2019-02-25T17:47:34.689Z,21.45
2019-02-25T17:49:43.377Z,19.07
2019-02-25T17:51:53.358Z,23.23
2019-02-25T17:54:00.891Z,22.37
2019-02-25T17:56:08.030Z,22.40
2019-02-25T17:58:15.287Z,18.65
2019-02-25T18:00:42.577Z,21.12
2019-02-25T18:02:50.874Z,20.60
2019-02-25T18:04:57.940Z,23.98
2019-02-25T18:07:05.116Z,22.90
2019-02-25T18:09:14.253Z,22.17
2019-02-25T18:11:22.517Z,23.45
2019-02-25T18:13:30.642Z,23.62
2019-02-25T18:15:39.724Z,26.12
2019-02-25T18:17:49.360Z,23.60
2019-02-25T18:19:56.866Z,22.02
2019-02-25T18:22:03.651Z,25.30
2019-02-25T18:24:12.407Z,23.27
2019-02-25T18:26:18.863Z,21.97
2019-02-25T18:28:26.679Z,21.68
2019-02-25T18:30:33.808Z,21.68
2019-02-25T18:32:40.857Z,24.57
2019-02-25T18:34:47.516Z,25.12
2019-02-25T18:36:55.479Z,22.13
2019-02-25T18:39:02.201Z,22.85
2019-02-25T18:41:10.595Z,21.40
2019-02-25T18:43:17.571Z,23.30
2019-02-25T18:45:25.493Z,22.77
2019-02-25T18:47:32.338Z,22.17
2019-02-25T18:49:39.026Z,20.75
2019-02-25T18:51:45.692Z,21.50
2019-02-25T18:53:53.104Z,21.35
2019-02-25T18:56:01.022Z,18.57
2019-02-25T18:58:09.673Z,19.00
2019-02-25T19:00:36.604Z,17.52
2019-02-25T19:02:43.394Z,17.77
2019-02-25T19:04:50.158Z,18.32
2019-02-25T19:06:57.167Z,18.17
2019-02-25T19:09:05.925Z,21.75
2019-02-25T19:11:15.310Z,18.77
2019-02-25T19:13:23.338Z,17.85
2019-02-25T19:15:31.491Z,16.48
2019-02-25T19:17:38.291Z,16.73
2019-02-25T19:19:46.643Z,16.32
2019-02-25T19:21:54.233Z,20.32
2019-02-25T19:24:03.597Z,18.20
2019-02-25T19:26:12.947Z,18.73
2019-02-25T19:28:21.408Z,15.88
2019-02-25T19:30:29.361Z,20.65
2019-02-25T19:32:39.930Z,16.95
2019-02-25T19:34:44.575Z,16.67
2019-02-25T19:36:51.488Z,17.45
2019-02-25T19:38:58.127Z,17.00
2019-02-25T19:41:04.974Z,17.10
2019-02-25T19:43:12.095Z,17.45
2019-02-25T19:45:19.702Z,15.75
2019-02-25T19:47:26.510Z,18.95
2019-02-25T19:49:34.158Z,19.85
2019-02-25T19:51:43.310Z,17.70
2019-02-25T19:53:49.998Z,20.90
2019-02-25T19:55:56.739Z,16.80
2019-02-25T19:58:03.475Z,18.85
2019-02-25T20:00:30.365Z,19.42
2019-02-25T20:02:37.501Z,19.05
2019-02-25T20:04:45.062Z,22.25
2019-02-25T20:06:53.758Z,19.80
2019-02-25T20:09:00.992Z,20.23
2019-02-25T20:11:10.063Z,18.93
2019-02-25T20:13:18.029Z,18.32
2019-02-25T20:15:27.171Z,20.72
2019-02-25T20:19:41.833Z,18.50
2019-02-25T20:21:50.715Z,19.35
2019-02-25T20:23:58.142Z,21.48
2019-02-25T20:26:05.218Z,20.15
2019-02-25T20:28:11.883Z,20.65
2019-02-25T20:30:21.918Z,23.10
2019-02-25T20:32:29.120Z,23.42
2019-02-25T20:34:35.858Z,24.27
2019-02-25T20:36:42.526Z,22.40
2019-02-25T20:38:49.443Z,23.77
2019-02-25T20:40:57.475Z,22.35
2019-02-25T20:43:04.582Z,25.85
2019-02-25T20:45:35.637Z,25.97
2019-02-25T20:47:44.498Z,28.15
2019-02-25T20:49:55.593Z,24.70
2019-02-25T20:52:02.633Z,27.50
2019-02-25T20:54:11.152Z,25.53
2019-02-25T20:56:17.745Z,26.97
2019-02-25T20:58:24.507Z,25.90
2019-02-25T21:00:34.896Z,25.10
2019-02-25T21:02:39.822Z,24.57
2019-02-25T21:04:48.583Z,25.00
2019-02-25T21:06:54.901Z,27.70
2019-02-25T21:09:02.472Z,27.32
2019-02-25T21:11:13.463Z,24.37
2019-02-25T21:13:22.092Z,25.10
2019-02-25T21:15:28.540Z,23.80
2019-02-25T21:17:35.610Z,26.12
2019-02-25T21:19:44.297Z,24.12
2019-02-25T21:21:55.001Z,25.85
2019-02-25T21:24:01.353Z,24.37
2019-02-25T21:26:09.308Z,27.37
2019-02-25T21:28:16.503Z,25.68
2019-02-25T21:30:24.676Z,26.23
2019-02-25T21:32:32.922Z,25.02
2019-02-25T21:34:39.703Z,23.75
2019-02-25T21:36:46.397Z,27.05
2019-02-25T21:38:53.938Z,24.52
2019-02-25T21:41:01.515Z,27.25
2019-02-25T21:43:14.465Z,25.12
2019-02-25T21:45:20.212Z,26.05
2019-02-25T21:47:28.719Z,26.77
2019-02-25T21:49:36.498Z,27.10
2019-02-25T21:51:47.767Z,24.90
2019-02-25T21:53:55.593Z,27.27
2019-02-25T21:56:04.439Z,26.45
2019-02-25T21:58:09.763Z,24.60
2019-02-25T22:00:29.277Z,25.10
2019-02-25T22:02:35.470Z,25.25
2019-02-25T22:04:45.437Z,25.40
2019-02-25T22:06:53.372Z,24.00
2019-02-25T22:09:01.244Z,28.70
2019-02-25T22:11:13.171Z,25.97
2019-02-25T22:13:20.739Z,23.98
2019-02-25T22:15:27.292Z,26.45
2019-02-25T22:17:33.975Z,24.30
2019-02-25T22:19:41.544Z,27.17
2019-02-25T22:21:51.607Z,25.60
2019-02-25T22:24:02.660Z,24.82
2019-02-25T22:26:05.991Z,27.32
2019-02-25T22:28:12.671Z,29.05
2019-02-25T22:30:19.936Z,28.80
2019-02-25T22:32:26.664Z,28.65
2019-02-25T22:34:33.356Z,30.70
2019-02-25T22:36:43.702Z,26.93
2019-02-25T22:38:49.460Z,28.77
2019-02-25T22:40:58.109Z,27.10
2019-02-25T22:43:04.581Z,28.55
2019-02-25T22:45:23.328Z,26.57
2019-02-25T22:47:30.083Z,27.40
2019-02-25T22:49:36.768Z,27.40
2019-02-25T22:51:43.422Z,26.25
2019-02-25T22:53:50.187Z,28.90
2019-02-25T22:55:56.924Z,26.73
2019-02-25T22:58:04.482Z,28.73
2019-02-25T23:00:31.110Z,25.12
2019-02-25T23:02:41.277Z,25.60
2019-02-25T23:04:49.617Z,27.93
2019-02-25T23:06:57.187Z,23.90
2019-02-25T23:09:04.121Z,23.50
2019-02-25T23:11:14.279Z,25.20
2019-02-25T23:13:22.641Z,23.65
2019-02-25T23:15:30.399Z,22.45
2019-02-25T23:17:37.548Z,23.73
2019-02-25T23:19:45.536Z,24.15
2019-02-25T23:21:52.208Z,23.25
2019-02-25T23:24:01.344Z,24.90
2019-02-25T23:26:07.266Z,26.48
2019-02-25T23:28:14.010Z,20.75
2019-02-25T23:30:21.340Z,23.87
2019-02-25T23:32:29.069Z,22.10
2019-02-25T23:34:38.489Z,22.42
2019-02-25T23:36:45.018Z,20.25
2019-02-25T23:38:53.090Z,23.47
2019-02-25T23:41:03.329Z,23.83
2019-02-25T23:43:10.147Z,23.42
2019-02-25T23:45:19.910Z,18.90
2019-02-25T23:47:28.787Z,21.75
2019-02-25T23:49:36.406Z,19.77
2019-02-25T23:51:43.751Z,20.00
2019-02-25T23:53:53.080Z,21.20
2019-02-25T23:55:59.665Z,21.40
2019-02-25T23:58:10.237Z,21.12
